sensor_id;sensor_type;location;lat;lon;timestamp;pressure;altitude;pressure_sealevel;temperature;humidity
66430;BME280;53242;51.694;10.006;2023-02-11T00:00:26;101209.88;;;3.31;77.53
66430;BME280;53242;51.694;10.006;2023-02-11T00:02:48;101213.59;;;3.27;77.45
66430;BME280;53242;51.694;10.006;2023-02-11T00:05:12;101215.69;;;3.22;77.77
66430;BME280;53242;51.694;10.006;2023-02-11T00:07:35;101202.13;;;3.29;77.62
66430;BME280;53242;51.694;10.006;2023-02-11T00:09:57;101211.31;;;3.35;77.46
66430;BME280;53242;51.694;10.006;2023-02-11T00:12:20;101208.59;;;3.37;77.40
66430;BME280;53242;51.694;10.006;2023-02-11T00:14:42;101199.63;;;3.28;77.86
66430;BME280;53242;51.694;10.006;2023-02-11T00:17:05;101192.13;;;3.36;77.22
66430;BME280;53242;51.694;10.006;2023-02-11T00:19:27;101176.78;;;3.32;78.14
66430;BME280;53242;51.694;10.006;2023-02-11T00:21:50;101177.19;;;3.38;77.68
66430;BME280;53242;51.694;10.006;2023-02-11T00:24:12;101169.75;;;3.45;77.41
66430;BME280;53242;51.694;10.006;2023-02-11T00:26:34;101164.00;;;3.40;77.75
66430;BME280;53242;51.694;10.006;2023-02-11T00:28:58;101161.09;;;3.44;77.49
66430;BME280;53242;51.694;10.006;2023-02-11T00:31:21;101162.38;;;3.39;77.71
66430;BME280;53242;51.694;10.006;2023-02-11T00:33:44;101158.78;;;3.40;78.04
66430;BME280;53242;51.694;10.006;2023-02-11T00:36:16;101154.03;;;3.34;78.00
66430;BME280;53242;51.694;10.006;2023-02-11T00:38:43;101138.75;;;3.40;78.13
66430;BME280;53242;51.694;10.006;2023-02-11T00:41:06;101150.34;;;3.49;77.72
66430;BME280;53242;51.694;10.006;2023-02-11T00:43:28;101150.66;;;3.44;77.71
66430;BME280;53242;51.694;10.006;2023-02-11T00:45:54;101155.75;;;3.46;77.95
66430;BME280;53242;51.694;10.006;2023-02-11T00:48:16;101157.13;;;3.52;77.82
66430;BME280;53242;51.694;10.006;2023-02-11T00:50:38;101158.06;;;3.51;77.64
66430;BME280;53242;51.694;10.006;2023-02-11T00:53:01;101161.19;;;3.56;77.56
66430;BME280;53242;51.694;10.006;2023-02-11T00:55:25;101164.94;;;3.65;77.33
66430;BME280;53242;51.694;10.006;2023-02-11T00:57:47;101170.16;;;3.65;77.65
66430;BME280;53242;51.694;10.006;2023-02-11T01:00:12;101169.94;;;3.55;77.34
66430;BME280;53242;51.694;10.006;2023-02-11T01:02:35;101163.06;;;3.54;77.75
66430;BME280;53242;51.694;10.006;2023-02-11T01:04:59;101157.28;;;3.61;77.18
66430;BME280;53242;51.694;10.006;2023-02-11T01:07:22;101152.50;;;3.55;77.96
66430;BME280;53242;51.694;10.006;2023-02-11T01:09:44;101156.50;;;3.48;78.34
66430;BME280;53242;51.694;10.006;2023-02-11T01:12:06;101161.06;;;3.57;77.94
66430;BME280;53242;51.694;10.006;2023-02-11T01:14:29;101160.88;;;3.48;78.44
66430;BME280;53242;51.694;10.006;2023-02-11T01:16:51;101152.50;;;3.55;78.53
66430;BME280;53242;51.694;10.006;2023-02-11T01:19:15;101154.81;;;3.60;78.05
66430;BME280;53242;51.694;10.006;2023-02-11T01:21:41;101156.34;;;3.62;78.11
66430;BME280;53242;51.694;10.006;2023-02-11T01:24:03;101152.00;;;3.50;78.54
66430;BME280;53242;51.694;10.006;2023-02-11T01:26:26;101156.34;;;3.62;78.35
66430;BME280;53242;51.694;10.006;2023-02-11T01:28:48;101165.44;;;3.70;78.04
66430;BME280;53242;51.694;10.006;2023-02-11T01:31:10;101164.38;;;3.72;78.06
66430;BME280;53242;51.694;10.006;2023-02-11T01:33:33;101150.16;;;3.76;77.72
66430;BME280;53242;51.694;10.006;2023-02-11T01:35:59;101141.47;;;3.76;77.99
66430;BME280;53242;51.694;10.006;2023-02-11T01:38:25;101139.91;;;3.73;78.23
66430;BME280;53242;51.694;10.006;2023-02-11T01:40:54;101139.38;;;3.81;77.99
66430;BME280;53242;51.694;10.006;2023-02-11T01:43:18;101150.56;;;3.83;77.64
66430;BME280;53242;51.694;10.006;2023-02-11T01:48:08;101156.59;;;3.84;78.03
66430;BME280;53242;51.694;10.006;2023-02-11T01:50:33;101147.63;;;3.88;77.96
66430;BME280;53242;51.694;10.006;2023-02-11T01:52:55;101149.78;;;3.94;77.81
66430;BME280;53242;51.694;10.006;2023-02-11T01:55:39;101151.56;;;3.93;77.59
66430;BME280;53242;51.694;10.006;2023-02-11T01:58:21;101143.22;;;3.88;77.95
66430;BME280;53242;51.694;10.006;2023-02-11T02:00:43;101138.66;;;3.79;78.36
66430;BME280;53242;51.694;10.006;2023-02-11T02:03:18;101137.44;;;3.72;78.58
66430;BME280;53242;51.694;10.006;2023-02-11T02:05:53;101116.09;;;3.78;78.60
66430;BME280;53242;51.694;10.006;2023-02-11T02:10:59;101110.31;;;3.61;79.03
66430;BME280;53242;51.694;10.006;2023-02-11T02:13:23;101113.81;;;3.73;78.98
66430;BME280;53242;51.694;10.006;2023-02-11T02:15:51;101116.22;;;3.76;78.91
66430;BME280;53242;51.694;10.006;2023-02-11T02:21:30;101109.19;;;3.77;79.16
66430;BME280;53242;51.694;10.006;2023-02-11T02:38:10;101115.44;;;3.87;79.04
66430;BME280;53242;51.694;10.006;2023-02-11T02:40:44;101105.84;;;3.88;79.29
66430;BME280;53242;51.694;10.006;2023-02-11T02:43:08;101096.94;;;3.90;79.35
66430;BME280;53242;51.694;10.006;2023-02-11T02:45:32;101094.03;;;3.82;80.32
66430;BME280;53242;51.694;10.006;2023-02-11T02:47:54;101093.66;;;3.75;80.65
66430;BME280;53242;51.694;10.006;2023-02-11T02:50:21;101094.03;;;3.82;80.28
66430;BME280;53242;51.694;10.006;2023-02-11T02:58:09;101089.06;;;3.79;81.20
66430;BME280;53242;51.694;10.006;2023-02-11T03:03:43;101073.19;;;3.69;81.83
66430;BME280;53242;51.694;10.006;2023-02-11T03:06:20;101072.53;;;3.78;81.63
66430;BME280;53242;51.694;10.006;2023-02-11T03:09:01;101075.38;;;3.75;81.88
66430;BME280;53242;51.694;10.006;2023-02-11T03:11:26;101069.25;;;3.64;82.34
66430;BME280;53242;51.694;10.006;2023-02-11T03:13:51;101058.38;;;3.70;82.44
66430;BME280;53242;51.694;10.006;2023-02-11T03:16:22;101052.94;;;3.73;82.25
66430;BME280;53242;51.694;10.006;2023-02-11T03:18:52;101051.13;;;3.73;82.00
66430;BME280;53242;51.694;10.006;2023-02-11T03:21:18;101057.66;;;3.68;82.19
66430;BME280;53242;51.694;10.006;2023-02-11T03:23:49;101060.88;;;3.71;82.20
66430;BME280;53242;51.694;10.006;2023-02-11T03:26:23;101060.25;;;3.68;82.05
66430;BME280;53242;51.694;10.006;2023-02-11T03:28:53;101061.88;;;3.82;81.85
66430;BME280;53242;51.694;10.006;2023-02-11T03:31:31;101056.66;;;3.82;81.75
66430;BME280;53242;51.694;10.006;2023-02-11T03:33:59;101067.28;;;3.67;82.72
66430;BME280;53242;51.694;10.006;2023-02-11T03:36:31;101060.75;;;3.73;82.32
66430;BME280;53242;51.694;10.006;2023-02-11T03:38:57;101054.38;;;3.77;81.94
66430;BME280;53242;51.694;10.006;2023-02-11T03:41:22;101059.13;;;3.59;83.10
66430;BME280;53242;51.694;10.006;2023-02-11T03:43:50;101058.81;;;3.64;83.64
66430;BME280;53242;51.694;10.006;2023-02-11T03:46:16;101053.81;;;3.60;83.31
66430;BME280;53242;51.694;10.006;2023-02-11T03:48:47;101048.69;;;3.59;83.11
66430;BME280;53242;51.694;10.006;2023-02-11T03:51:11;101053.13;;;3.45;83.88
66430;BME280;53242;51.694;10.006;2023-02-11T03:53:35;101054.59;;;3.50;83.54
66430;BME280;53242;51.694;10.006;2023-02-11T03:56:02;101055.31;;;3.52;83.46
66430;BME280;53242;51.694;10.006;2023-02-11T03:58:26;101054.09;;;3.44;83.89
66430;BME280;53242;51.694;10.006;2023-02-11T04:00:48;101043.09;;;3.52;83.47
66430;BME280;53242;51.694;10.006;2023-02-11T04:03:11;101034.59;;;3.61;82.97
66430;BME280;53242;51.694;10.006;2023-02-11T04:05:35;101029.22;;;3.52;83.66
66430;BME280;53242;51.694;10.006;2023-02-11T04:07:57;101023.38;;;3.48;83.50
66430;BME280;53242;51.694;10.006;2023-02-11T04:10:20;101025.06;;;3.49;84.18
66430;BME280;53242;51.694;10.006;2023-02-11T04:12:42;101034.75;;;3.47;84.31
66430;BME280;53242;51.694;10.006;2023-02-11T04:15:05;101027.25;;;3.42;84.54
66430;BME280;53242;51.694;10.006;2023-02-11T04:17:27;101032.53;;;3.54;83.98
66430;BME280;53242;51.694;10.006;2023-02-11T04:19:50;101025.25;;;3.46;84.26
66430;BME280;53242;51.694;10.006;2023-02-11T04:22:12;101030.66;;;3.56;83.32
66430;BME280;53242;51.694;10.006;2023-02-11T04:24:35;101031.72;;;3.53;83.83
66430;BME280;53242;51.694;10.006;2023-02-11T04:26:57;101030.97;;;3.51;84.09
66430;BME280;53242;51.694;10.006;2023-02-11T04:29:20;101035.13;;;3.54;83.88
66430;BME280;53242;51.694;10.006;2023-02-11T04:31:42;101033.47;;;3.53;83.89
66430;BME280;53242;51.694;10.006;2023-02-11T04:34:05;101040.38;;;3.54;83.93
66430;BME280;53242;51.694;10.006;2023-02-11T04:36:27;101047.06;;;3.45;84.06
66430;BME280;53242;51.694;10.006;2023-02-11T04:38:49;101050.81;;;3.54;83.36
66430;BME280;53242;51.694;10.006;2023-02-11T04:41:12;101055.31;;;3.52;83.73
66430;BME280;53242;51.694;10.006;2023-02-11T04:43:35;101043.59;;;3.57;83.57
66430;BME280;53242;51.694;10.006;2023-02-11T04:45:57;101047.75;;;3.60;83.32
66430;BME280;53242;51.694;10.006;2023-02-11T04:48:19;101049.63;;;3.58;83.45
66430;BME280;53242;51.694;10.006;2023-02-11T04:50:42;101048.38;;;3.64;83.22
66430;BME280;53242;51.694;10.006;2023-02-11T04:53:04;101049.59;;;3.71;82.94
66430;BME280;53242;51.694;10.006;2023-02-11T04:55:27;101055.28;;;3.65;82.87
66430;BME280;53242;51.694;10.006;2023-02-11T04:57:49;101046.97;;;3.71;82.81
66430;BME280;53242;51.694;10.006;2023-02-11T05:00:12;101052.81;;;3.74;82.36
66430;BME280;53242;51.694;10.006;2023-02-11T05:02:35;101049.25;;;3.75;82.72
66430;BME280;53242;51.694;10.006;2023-02-11T05:04:57;101051.63;;;3.78;82.23
66430;BME280;53242;51.694;10.006;2023-02-11T05:07:19;101050.00;;;3.77;82.45
66430;BME280;53242;51.694;10.006;2023-02-11T05:09:42;101040.97;;;3.82;82.53
66430;BME280;53242;51.694;10.006;2023-02-11T05:12:04;101035.81;;;3.69;82.96
66430;BME280;53242;51.694;10.006;2023-02-11T05:14:27;101039.88;;;3.73;83.04
66430;BME280;53242;51.694;10.006;2023-02-11T05:16:49;101040.94;;;3.70;83.31
66430;BME280;53242;51.694;10.006;2023-02-11T05:19:11;101042.84;;;3.79;83.00
66430;BME280;53242;51.694;10.006;2023-02-11T05:21:34;101049.63;;;3.82;83.25
66430;BME280;53242;51.694;10.006;2023-02-11T05:23:56;101045.97;;;3.85;83.40
66430;BME280;53242;51.694;10.006;2023-02-11T05:26:19;101036.38;;;3.85;83.42
66430;BME280;53242;51.694;10.006;2023-02-11T05:28:42;101035.03;;;3.79;83.96
66430;BME280;53242;51.694;10.006;2023-02-11T05:31:04;101024.09;;;3.74;84.85
66430;BME280;53242;51.694;10.006;2023-02-11T05:33:27;101021.72;;;3.71;85.00
66430;BME280;53242;51.694;10.006;2023-02-11T05:35:49;101023.16;;;3.75;85.16
66430;BME280;53242;51.694;10.006;2023-02-11T05:38:12;101018.75;;;3.76;85.58
66430;BME280;53242;51.694;10.006;2023-02-11T05:40:34;101012.31;;;3.69;85.95
66430;BME280;53242;51.694;10.006;2023-02-11T05:42:56;101017.03;;;3.64;86.91
66430;BME280;53242;51.694;10.006;2023-02-11T05:45:19;101015.44;;;3.74;86.59
66430;BME280;53242;51.694;10.006;2023-02-11T05:47:41;101022.31;;;3.75;86.87
66430;BME280;53242;51.694;10.006;2023-02-11T05:50:04;101023.97;;;3.76;86.51
66430;BME280;53242;51.694;10.006;2023-02-11T05:52:27;101019.91;;;3.72;86.36
66430;BME280;53242;51.694;10.006;2023-02-11T05:54:49;101024.38;;;3.83;86.17
66430;BME280;53242;51.694;10.006;2023-02-11T05:57:12;101023.66;;;3.81;86.42
66430;BME280;53242;51.694;10.006;2023-02-11T05:59:34;101025.44;;;3.80;86.89
66430;BME280;53242;51.694;10.006;2023-02-11T06:01:57;101031.97;;;3.86;86.82
66430;BME280;53242;51.694;10.006;2023-02-11T06:04:19;101024.38;;;3.83;87.36
66430;BME280;53242;51.694;10.006;2023-02-11T06:06:42;101043.72;;;3.80;87.05
66430;BME280;53242;51.694;10.006;2023-02-11T06:09:04;101044.66;;;3.79;87.59
66430;BME280;53242;51.694;10.006;2023-02-11T06:11:26;101051.63;;;3.78;87.13
66430;BME280;53242;51.694;10.006;2023-02-11T06:13:49;101040.25;;;3.79;87.43
66430;BME280;53242;51.694;10.006;2023-02-11T06:16:12;101040.75;;;3.85;87.93
66430;BME280;53242;51.694;10.006;2023-02-11T06:18:34;101036.38;;;3.85;87.95
66430;BME280;53242;51.694;10.006;2023-02-11T06:20:56;101032.34;;;3.92;87.47
66430;BME280;53242;51.694;10.006;2023-02-11T06:23:19;101036.19;;;4.00;86.84
66430;BME280;53242;51.694;10.006;2023-02-11T06:25:41;101034.34;;;3.89;86.83
66430;BME280;53242;51.694;10.006;2023-02-11T06:28:04;101037.38;;;4.07;86.63
66430;BME280;53242;51.694;10.006;2023-02-11T06:30:26;101032.59;;;3.89;87.11
66430;BME280;53242;51.694;10.006;2023-02-11T06:32:49;101036.41;;;3.97;86.85
66430;BME280;53242;51.694;10.006;2023-02-11T06:35:13;101035.00;;;4.04;86.38
66430;BME280;53242;51.694;10.006;2023-02-11T06:37:35;101037.13;;;3.99;85.88
66430;BME280;53242;51.694;10.006;2023-02-11T06:39:58;101046.06;;;4.07;86.16
66430;BME280;53242;51.694;10.006;2023-02-11T06:42:20;101040.69;;;3.98;86.66
66430;BME280;53242;51.694;10.006;2023-02-11T06:44:42;101039.75;;;3.99;87.88
66430;BME280;53242;51.694;10.006;2023-02-11T06:47:06;101042.88;;;4.15;87.18
66430;BME280;53242;51.694;10.006;2023-02-11T06:49:28;101045.00;;;4.10;87.21
66430;BME280;53242;51.694;10.006;2023-02-11T06:51:51;101049.78;;;4.16;87.04
66430;BME280;53242;51.694;10.006;2023-02-11T06:54:13;101054.03;;;4.06;87.35
66430;BME280;53242;51.694;10.006;2023-02-11T06:56:38;101054.72;;;4.08;87.45
66430;BME280;53242;51.694;10.006;2023-02-11T06:59:01;101047.88;;;4.18;87.22
66430;BME280;53242;51.694;10.006;2023-02-11T07:01:25;101050.59;;;4.17;86.89
66430;BME280;53242;51.694;10.006;2023-02-11T07:03:48;101049.75;;;4.05;86.44
66430;BME280;53242;51.694;10.006;2023-02-11T07:06:13;101051.63;;;4.03;86.87
66430;BME280;53242;51.694;10.006;2023-02-11T07:08:37;101059.94;;;4.08;87.45
66430;BME280;53242;51.694;10.006;2023-02-11T07:10:59;101063.63;;;4.05;88.56
66430;BME280;53242;51.694;10.006;2023-02-11T07:13:22;101064.13;;;4.10;87.62
66430;BME280;53242;51.694;10.006;2023-02-11T07:15:44;101058.06;;;4.10;87.88
66430;BME280;53242;51.694;10.006;2023-02-11T07:18:07;101056.28;;;4.10;88.38
66430;BME280;53242;51.694;10.006;2023-02-11T07:20:29;101063.41;;;4.08;88.64
66430;BME280;53242;51.694;10.006;2023-02-11T07:22:51;101061.19;;;4.15;88.95
66430;BME280;53242;51.694;10.006;2023-02-11T07:25:14;101056.16;;;4.12;88.23
66430;BME280;53242;51.694;10.006;2023-02-11T07:27:36;101059.38;;;4.16;88.57
66430;BME280;53242;51.694;10.006;2023-02-11T07:29:59;101056.56;;;4.19;88.81
66430;BME280;53242;51.694;10.006;2023-02-11T07:32:21;101062.38;;;4.22;88.57
66430;BME280;53242;51.694;10.006;2023-02-11T07:34:44;101062.84;;;4.27;88.17
66430;BME280;53242;51.694;10.006;2023-02-11T07:37:06;101068.38;;;4.36;87.87
66430;BME280;53242;51.694;10.006;2023-02-11T07:39:28;101074.28;;;4.26;88.18
66430;BME280;53242;51.694;10.006;2023-02-11T07:41:51;101080.44;;;4.25;87.81
66430;BME280;53242;51.694;10.006;2023-02-11T07:44:14;101074.88;;;4.30;88.54
66430;BME280;53242;51.694;10.006;2023-02-11T07:46:36;101080.34;;;4.27;88.74
66430;BME280;53242;51.694;10.006;2023-02-11T07:49:03;101082.50;;;4.33;88.54
66430;BME280;53242;51.694;10.006;2023-02-11T07:51:28;101079.19;;;4.42;88.27
66430;BME280;53242;51.694;10.006;2023-02-11T07:53:51;101083.81;;;4.39;88.38
66430;BME280;53242;51.694;10.006;2023-02-11T07:56:14;101084.53;;;4.41;88.55
66430;BME280;53242;51.694;10.006;2023-02-11T07:58:38;101078.38;;;4.42;88.42
66430;BME280;53242;51.694;10.006;2023-02-11T08:01:06;101075.03;;;4.40;89.16
66430;BME280;53242;51.694;10.006;2023-02-11T08:03:30;101081.34;;;4.49;88.81
66430;BME280;53242;51.694;10.006;2023-02-11T08:05:52;101087.16;;;4.41;88.79
66430;BME280;53242;51.694;10.006;2023-02-11T08:08:15;101078.13;;;4.45;88.41
66430;BME280;53242;51.694;10.006;2023-02-11T08:10:37;101085.50;;;4.51;88.23
66430;BME280;53242;51.694;10.006;2023-02-11T08:13:00;101081.84;;;4.54;88.25
66430;BME280;53242;51.694;10.006;2023-02-11T08:15:22;101082.16;;;4.49;88.15
66430;BME280;53242;51.694;10.006;2023-02-11T08:17:45;101077.41;;;4.54;87.77
66430;BME280;53242;51.694;10.006;2023-02-11T08:20:07;101082.66;;;4.54;87.98
66430;BME280;53242;51.694;10.006;2023-02-11T08:22:30;101084.66;;;4.51;88.53
66430;BME280;53242;51.694;10.006;2023-02-11T08:24:53;101086.13;;;4.55;88.34
66430;BME280;53242;51.694;10.006;2023-02-11T08:27:15;101090.38;;;4.56;87.77
66430;BME280;53242;51.694;10.006;2023-02-11T08:29:38;101089.09;;;4.61;87.40
66430;BME280;53242;51.694;10.006;2023-02-11T08:32:01;101087.66;;;4.57;87.37
66430;BME280;53242;51.694;10.006;2023-02-11T08:34:24;101087.53;;;4.59;87.33
66430;BME280;53242;51.694;10.006;2023-02-11T08:36:47;101095.38;;;4.59;87.65
66430;BME280;53242;51.694;10.006;2023-02-11T08:39:15;101094.19;;;4.63;87.51
66430;BME280;53242;51.694;10.006;2023-02-11T08:41:38;101095.88;;;4.64;87.29
66430;BME280;53242;51.694;10.006;2023-02-11T08:44:00;101092.81;;;4.70;86.70
66430;BME280;53242;51.694;10.006;2023-02-11T08:46:23;101090.66;;;4.64;87.24
66430;BME280;53242;51.694;10.006;2023-02-11T08:48:46;101092.66;;;4.60;87.71
66430;BME280;53242;51.694;10.006;2023-02-11T08:51:13;101089.59;;;4.78;86.79
66430;BME280;53242;51.694;10.006;2023-02-11T08:53:36;101091.63;;;4.74;86.89
66430;BME280;53242;51.694;10.006;2023-02-11T08:55:58;101093.63;;;4.71;86.66
66430;BME280;53242;51.694;10.006;2023-02-11T08:58:21;101101.47;;;4.71;87.13
66430;BME280;53242;51.694;10.006;2023-02-11T09:00:43;101105.38;;;4.76;87.10
66430;BME280;53242;51.694;10.006;2023-02-11T09:03:06;101096.84;;;4.74;87.21
66430;BME280;53242;51.694;10.006;2023-02-11T09:05:28;101108.59;;;4.80;87.04
66430;BME280;53242;51.694;10.006;2023-02-11T09:07:51;101110.03;;;4.73;86.12
66430;BME280;53242;51.694;10.006;2023-02-11T09:10:13;101120.63;;;4.94;86.14
66430;BME280;53242;51.694;10.006;2023-02-11T09:12:36;101114.19;;;4.87;86.55
66430;BME280;53242;51.694;10.006;2023-02-11T09:14:58;101122.31;;;4.95;86.04
66430;BME280;53242;51.694;10.006;2023-02-11T09:17:20;101116.00;;;4.98;86.33
66430;BME280;53242;51.694;10.006;2023-02-11T09:19:43;101120.41;;;5.08;85.81
66430;BME280;53242;51.694;10.006;2023-02-11T09:22:05;101115.63;;;5.02;85.58
66430;BME280;53242;51.694;10.006;2023-02-11T09:24:28;101110.78;;;5.09;85.75
66430;BME280;53242;51.694;10.006;2023-02-11T09:26:50;101112.44;;;5.10;85.77
66430;BME280;53242;51.694;10.006;2023-02-11T09:29:12;101114.59;;;5.16;85.74
66430;BME280;53242;51.694;10.006;2023-02-11T09:31:35;101114.47;;;5.18;85.63
66430;BME280;53242;51.694;10.006;2023-02-11T09:34:00;101122.44;;;5.27;86.01
66430;BME280;53242;51.694;10.006;2023-02-11T09:36:25;101128.63;;;5.26;85.79
66430;BME280;53242;51.694;10.006;2023-02-11T09:38:48;101118.88;;;5.29;85.49
66430;BME280;53242;51.694;10.006;2023-02-11T09:44:21;101113.50;;;5.30;85.98
66430;BME280;53242;51.694;10.006;2023-02-11T09:46:49;101113.75;;;5.38;85.84
66430;BME280;53242;51.694;10.006;2023-02-11T09:49:18;101130.88;;;5.42;86.06
66430;BME280;53242;51.694;10.006;2023-02-11T09:51:47;101132.91;;;5.39;86.06
66430;BME280;53242;51.694;10.006;2023-02-11T09:54:17;101131.25;;;5.38;86.07
66430;BME280;53242;51.694;10.006;2023-02-11T09:56:42;101136.59;;;5.36;86.15
66430;BME280;53242;51.694;10.006;2023-02-11T09:59:09;101147.41;;;5.32;86.10
66430;BME280;53242;51.694;10.006;2023-02-11T10:01:47;101165.28;;;5.38;86.06
66430;BME280;53242;51.694;10.006;2023-02-11T10:04:40;101167.19;;;5.36;86.33
66430;BME280;53242;51.694;10.006;2023-02-11T10:07:37;101175.16;;;5.46;86.08
66430;BME280;53242;51.694;10.006;2023-02-11T10:10:24;101168.97;;;5.47;85.61
66430;BME280;53242;51.694;10.006;2023-02-11T10:13:05;101167.19;;;5.36;85.84
66430;BME280;53242;51.694;10.006;2023-02-11T10:21:44;101171.13;;;5.53;85.89
66430;BME280;53242;51.694;10.006;2023-02-11T10:24:13;101181.25;;;5.46;85.36
66430;BME280;53242;51.694;10.006;2023-02-11T10:26:38;101167.78;;;5.51;85.60
66430;BME280;53242;51.694;10.006;2023-02-11T10:29:09;101178.59;;;5.57;85.56
66430;BME280;53242;51.694;10.006;2023-02-11T10:31:42;101174.81;;;5.62;85.36
66430;BME280;53242;51.694;10.006;2023-02-11T10:34:12;101177.19;;;5.53;85.39
66430;BME280;53242;51.694;10.006;2023-02-11T10:36:37;101173.25;;;5.59;85.68
66430;BME280;53242;51.694;10.006;2023-02-11T10:39:13;101176.44;;;5.63;85.78
66430;BME280;53242;51.694;10.006;2023-02-11T10:41:40;101168.84;;;5.71;85.31
66430;BME280;53242;51.694;10.006;2023-02-11T10:44:15;101171.69;;;5.68;85.20
66430;BME280;53242;51.694;10.006;2023-02-11T10:46:40;101168.22;;;5.79;85.23
66430;BME280;53242;51.694;10.006;2023-02-11T10:49:03;101165.94;;;5.85;85.11
66430;BME280;53242;51.694;10.006;2023-02-11T10:51:30;101165.84;;;5.75;85.44
66430;BME280;53242;51.694;10.006;2023-02-11T10:56:27;101171.78;;;5.78;85.50
66430;BME280;53242;51.694;10.006;2023-02-11T10:58:59;101161.75;;;5.94;85.41
66430;BME280;53242;51.694;10.006;2023-02-11T11:01:23;101166.06;;;5.95;85.04
66430;BME280;53242;51.694;10.006;2023-02-11T11:03:58;101159.72;;;5.98;85.35
66430;BME280;53242;51.694;10.006;2023-02-11T11:06:31;101158.56;;;6.02;85.32
66430;BME280;53242;51.694;10.006;2023-02-11T11:08:54;101168.16;;;6.13;85.58
66430;BME280;53242;51.694;10.006;2023-02-11T11:11:21;101156.47;;;6.17;85.45
66430;BME280;53242;51.694;10.006;2023-02-11T11:13:58;101153.63;;;6.20;86.25
66430;BME280;53242;51.694;10.006;2023-02-11T11:16:22;101151.22;;;6.17;86.52
66430;BME280;53242;51.694;10.006;2023-02-11T11:18:47;101153.34;;;6.23;86.38
66430;BME280;53242;51.694;10.006;2023-02-11T11:23:35;101160.22;;;6.35;87.83
66430;BME280;53242;51.694;10.006;2023-02-11T11:28:34;101167.00;;;6.38;87.87
66430;BME280;53242;51.694;10.006;2023-02-11T11:30:59;101163.38;;;6.50;88.20
66430;BME280;53242;51.694;10.006;2023-02-11T11:33:26;101165.03;;;6.51;87.51
66430;BME280;53242;51.694;10.006;2023-02-11T11:36:10;101162.88;;;6.56;87.83
66430;BME280;53242;51.694;10.006;2023-02-11T11:38:34;101161.91;;;6.57;88.37
66430;BME280;53242;51.694;10.006;2023-02-11T11:41:19;101155.13;;;6.55;88.04
66430;BME280;53242;51.694;10.006;2023-02-11T11:44:21;101154.84;;;6.58;87.97
66430;BME280;53242;51.694;10.006;2023-02-11T11:46:45;101145.16;;;6.70;87.89
66430;BME280;53242;51.694;10.006;2023-02-11T11:51:34;101153.53;;;6.64;87.89
66430;BME280;53242;51.694;10.006;2023-02-11T11:54:03;101151.38;;;6.69;87.88
66430;BME280;53242;51.694;10.006;2023-02-11T11:56:29;101153.13;;;6.68;88.35
66430;BME280;53242;51.694;10.006;2023-02-11T11:58:53;101148.47;;;6.72;87.88
66430;BME280;53242;51.694;10.006;2023-02-11T12:05:08;101157.28;;;6.71;88.03
66430;BME280;53242;51.694;10.006;2023-02-11T12:07:30;101151.41;;;6.79;87.81
66430;BME280;53242;51.694;10.006;2023-02-11T12:12:44;101156.16;;;6.85;87.68
66430;BME280;53242;51.694;10.006;2023-02-11T12:21:18;101145.19;;;6.80;88.02
66430;BME280;53242;51.694;10.006;2023-02-11T12:24:14;101158.19;;;6.81;88.15
66430;BME280;53242;51.694;10.006;2023-02-11T12:31:53;101147.50;;;6.73;88.29
66430;BME280;53242;51.694;10.006;2023-02-11T12:39:41;101149.94;;;6.86;88.00
66430;BME280;53242;51.694;10.006;2023-02-11T12:42:19;101145.97;;;6.91;87.88
66430;BME280;53242;51.694;10.006;2023-02-11T12:47:48;101148.72;;;6.90;88.09
66430;BME280;53242;51.694;10.006;2023-02-11T12:53:10;101145.72;;;6.95;87.81
66430;BME280;53242;51.694;10.006;2023-02-11T12:55:39;101145.00;;;6.93;87.87
66430;BME280;53242;51.694;10.006;2023-02-11T12:58:04;101143.41;;;7.01;87.63
66430;BME280;53242;51.694;10.006;2023-02-11T13:00:41;101146.59;;;7.05;87.58
66430;BME280;53242;51.694;10.006;2023-02-11T13:03:18;101147.81;;;7.01;87.74
66430;BME280;53242;51.694;10.006;2023-02-11T13:05:44;101146.72;;;7.03;87.60
66430;BME280;53242;51.694;10.006;2023-02-11T13:08:18;101156.06;;;6.96;87.71
66430;BME280;53242;51.694;10.006;2023-02-11T13:10:45;101155.94;;;6.98;87.93
66430;BME280;53242;51.694;10.006;2023-02-11T13:13:31;101146.03;;;7.01;87.80
66430;BME280;53242;51.694;10.006;2023-02-11T13:16:01;101146.47;;;7.06;87.63
66430;BME280;53242;51.694;10.006;2023-02-11T13:18:46;101144.66;;;7.07;87.43
66430;BME280;53242;51.694;10.006;2023-02-11T13:23:50;101139.97;;;7.11;87.38
66430;BME280;53242;51.694;10.006;2023-02-11T13:26:20;101133.06;;;7.10;87.51
66430;BME280;53242;51.694;10.006;2023-02-11T13:28:52;101137.56;;;7.19;87.30
66430;BME280;53242;51.694;10.006;2023-02-11T13:31:18;101140.19;;;7.19;87.26
66430;BME280;53242;51.694;10.006;2023-02-11T13:33:41;101136.00;;;7.16;87.30
66430;BME280;53242;51.694;10.006;2023-02-11T13:38:29;101153.81;;;7.13;87.36
66430;BME280;53242;51.694;10.006;2023-02-11T13:41:03;101144.56;;;7.18;87.33
66430;BME280;53242;51.694;10.006;2023-02-11T13:43:28;101145.66;;;7.16;87.40
66430;BME280;53242;51.694;10.006;2023-02-11T13:45:59;101145.53;;;7.17;87.44
66430;BME280;53242;51.694;10.006;2023-02-11T13:48:23;101149.38;;;7.13;87.70
66430;BME280;53242;51.694;10.006;2023-02-11T13:50:52;101152.88;;;7.23;87.12
66430;BME280;53242;51.694;10.006;2023-02-11T13:53:17;101150.78;;;7.17;87.26
66430;BME280;53242;51.694;10.006;2023-02-11T13:55:43;101159.00;;;7.34;86.98
66430;BME280;53242;51.694;10.006;2023-02-11T14:03:31;101152.72;;;7.46;86.75
66430;BME280;53242;51.694;10.006;2023-02-11T14:06:24;101164.75;;;7.49;86.58
66430;BME280;53242;51.694;10.006;2023-02-11T14:14:56;101169.44;;;7.45;86.86
66430;BME280;53242;51.694;10.006;2023-02-11T14:17:26;101164.47;;;7.42;86.81